sensor_id;sensor_type;location;lat;lon;timestamp;P1;durP1;ratioP1;P2;durP2;ratioP2
64351;SDS011;50680;52.626;-8.668;2022-07-23T00:01:26;8.73;;;4.78;;
64351;SDS011;50680;52.626;-8.668;2022-07-23T00:03:54;12.70;;;4.45;;
64351;SDS011;50680;52.626;-8.668;2022-07-23T00:06:22;6.60;;;4.15;;
64351;SDS011;50680;52.626;-8.668;2022-07-23T00:08:50;7.32;;;4.18;;
64351;SDS011;50680;52.626;-8.668;2022-07-23T00:11:17;8.65;;;4.32;;
64351;SDS011;50680;52.626;-8.668;2022-07-23T00:13:44;5.50;;;4.25;;
64351;SDS011;50680;52.626;-8.668;2022-07-23T00:16:11;10.68;;;4.47;;
64351;SDS011;50680;52.626;-8.668;2022-07-23T00:18:38;10.18;;;4.68;;
64351;SDS011;50680;52.626;-8.668;2022-07-23T00:21:05;7.00;;;4.32;;
64351;SDS011;50680;52.626;-8.668;2022-07-23T00:23:33;9.00;;;4.55;;
64351;SDS011;50680;52.626;-8.668;2022-07-23T00:26:00;8.05;;;4.40;;
64351;SDS011;50680;52.626;-8.668;2022-07-23T00:28:27;6.70;;;4.00;;
64351;SDS011;50680;52.626;-8.668;2022-07-23T00:30:54;9.35;;;4.40;;
64351;SDS011;50680;52.626;-8.668;2022-07-23T00:33:21;8.32;;;4.90;;
64351;SDS011;50680;52.626;-8.668;2022-07-23T00:35:48;10.35;;;4.70;;
64351;SDS011;50680;52.626;-8.668;2022-07-23T00:38:15;7.40;;;4.45;;
64351;SDS011;50680;52.626;-8.668;2022-07-23T00:40:42;9.60;;;4.78;;
64351;SDS011;50680;52.626;-8.668;2022-07-23T00:43:09;7.00;;;4.40;;
64351;SDS011;50680;52.626;-8.668;2022-07-23T00:45:36;7.22;;;4.57;;
64351;SDS011;50680;52.626;-8.668;2022-07-23T00:48:03;6.80;;;4.80;;
64351;SDS011;50680;52.626;-8.668;2022-07-23T00:50:30;11.80;;;5.22;;
64351;SDS011;50680;52.626;-8.668;2022-07-23T00:52:57;8.95;;;4.55;;
64351;SDS011;50680;52.626;-8.668;2022-07-23T00:55:24;8.95;;;5.07;;
64351;SDS011;50680;52.626;-8.668;2022-07-23T00:57:51;9.80;;;4.60;;
64351;SDS011;50680;52.626;-8.668;2022-07-23T01:00:20;8.82;;;4.78;;
64351;SDS011;50680;52.626;-8.668;2022-07-23T01:02:47;10.38;;;4.30;;
64351;SDS011;50680;52.626;-8.668;2022-07-23T01:05:15;6.18;;;4.25;;
64351;SDS011;50680;52.626;-8.668;2022-07-23T01:07:43;7.07;;;3.88;;
64351;SDS011;50680;52.626;-8.668;2022-07-23T01:10:12;8.07;;;4.43;;
64351;SDS011;50680;52.626;-8.668;2022-07-23T01:13:05;5.85;;;3.53;;
64351;SDS011;50680;52.626;-8.668;2022-07-23T01:15:33;4.85;;;3.58;;
64351;SDS011;50680;52.626;-8.668;2022-07-23T01:18:02;6.25;;;4.15;;
64351;SDS011;50680;52.626;-8.668;2022-07-23T01:20:30;11.50;;;4.00;;
64351;SDS011;50680;52.626;-8.668;2022-07-23T01:22:58;6.35;;;4.15;;
64351;SDS011;50680;52.626;-8.668;2022-07-23T01:25:25;5.60;;;3.70;;
64351;SDS011;50680;52.626;-8.668;2022-07-23T01:27:52;7.05;;;3.78;;
64351;SDS011;50680;52.626;-8.668;2022-07-23T01:30:20;7.90;;;3.92;;
64351;SDS011;50680;52.626;-8.668;2022-07-23T01:32:47;6.85;;;4.20;;
64351;SDS011;50680;52.626;-8.668;2022-07-23T01:35:14;5.28;;;4.07;;
64351;SDS011;50680;52.626;-8.668;2022-07-23T01:37:41;6.35;;;3.58;;
64351;SDS011;50680;52.626;-8.668;2022-07-23T01:40:08;7.13;;;3.67;;
64351;SDS011;50680;52.626;-8.668;2022-07-23T01:42:35;4.90;;;3.60;;
64351;SDS011;50680;52.626;-8.668;2022-07-23T01:45:03;8.05;;;4.20;;
64351;SDS011;50680;52.626;-8.668;2022-07-23T01:47:31;7.03;;;4.32;;
64351;SDS011;50680;52.626;-8.668;2022-07-23T01:49:58;5.07;;;3.42;;
64351;SDS011;50680;52.626;-8.668;2022-07-23T01:52:25;5.63;;;4.43;;
64351;SDS011;50680;52.626;-8.668;2022-07-23T01:54:52;11.40;;;4.50;;
64351;SDS011;50680;52.626;-8.668;2022-07-23T01:57:19;9.63;;;3.92;;
64351;SDS011;50680;52.626;-8.668;2022-07-23T01:59:46;6.43;;;3.58;;
64351;SDS011;50680;52.626;-8.668;2022-07-23T02:02:13;8.73;;;4.32;;
64351;SDS011;50680;52.626;-8.668;2022-07-23T02:04:40;9.30;;;4.47;;
64351;SDS011;50680;52.626;-8.668;2022-07-23T02:07:07;5.95;;;4.05;;
64351;SDS011;50680;52.626;-8.668;2022-07-23T02:09:34;11.52;;;4.93;;
64351;SDS011;50680;52.626;-8.668;2022-07-23T02:12:01;10.05;;;4.88;;
64351;SDS011;50680;52.626;-8.668;2022-07-23T02:14:29;11.38;;;4.75;;
64351;SDS011;50680;52.626;-8.668;2022-07-23T02:16:57;12.50;;;5.30;;
64351;SDS011;50680;52.626;-8.668;2022-07-23T02:19:24;7.30;;;4.75;;
64351;SDS011;50680;52.626;-8.668;2022-07-23T02:21:52;9.50;;;5.07;;
64351;SDS011;50680;52.626;-8.668;2022-07-23T02:24:20;11.10;;;5.05;;
64351;SDS011;50680;52.626;-8.668;2022-07-23T02:26:48;10.80;;;4.88;;
64351;SDS011;50680;52.626;-8.668;2022-07-23T02:29:15;9.63;;;5.70;;
64351;SDS011;50680;52.626;-8.668;2022-07-23T02:31:42;9.63;;;5.63;;
64351;SDS011;50680;52.626;-8.668;2022-07-23T02:34:09;11.90;;;5.68;;
64351;SDS011;50680;52.626;-8.668;2022-07-23T02:36:38;13.80;;;5.95;;
64351;SDS011;50680;52.626;-8.668;2022-07-23T02:39:06;11.23;;;6.38;;
64351;SDS011;50680;52.626;-8.668;2022-07-23T02:41:33;10.10;;;5.78;;
64351;SDS011;50680;52.626;-8.668;2022-07-23T02:44:00;9.45;;;5.63;;
64351;SDS011;50680;52.626;-8.668;2022-07-23T02:46:27;11.88;;;5.15;;
64351;SDS011;50680;52.626;-8.668;2022-07-23T02:48:54;11.18;;;6.03;;
64351;SDS011;50680;52.626;-8.668;2022-07-23T02:51:21;16.65;;;6.15;;
64351;SDS011;50680;52.626;-8.668;2022-07-23T02:53:48;14.75;;;6.03;;
64351;SDS011;50680;52.626;-8.668;2022-07-23T02:56:15;10.70;;;6.28;;
64351;SDS011;50680;52.626;-8.668;2022-07-23T02:58:42;11.90;;;5.85;;
64351;SDS011;50680;52.626;-8.668;2022-07-23T03:01:09;12.88;;;6.10;;
64351;SDS011;50680;52.626;-8.668;2022-07-23T03:03:36;10.38;;;6.65;;
64351;SDS011;50680;52.626;-8.668;2022-07-23T03:06:03;12.07;;;6.53;;
64351;SDS011;50680;52.626;-8.668;2022-07-23T03:08:31;9.40;;;5.78;;
64351;SDS011;50680;52.626;-8.668;2022-07-23T03:10:58;12.55;;;6.00;;
64351;SDS011;50680;52.626;-8.668;2022-07-23T03:13:25;10.13;;;5.47;;
64351;SDS011;50680;52.626;-8.668;2022-07-23T03:15:52;10.35;;;5.18;;
64351;SDS011;50680;52.626;-8.668;2022-07-23T03:18:19;12.02;;;4.95;;
64351;SDS011;50680;52.626;-8.668;2022-07-23T03:20:46;15.02;;;5.95;;
64351;SDS011;50680;52.626;-8.668;2022-07-23T03:23:13;9.63;;;4.97;;
64351;SDS011;50680;52.626;-8.668;2022-07-23T03:25:40;10.93;;;5.32;;
64351;SDS011;50680;52.626;-8.668;2022-07-23T03:28:06;10.52;;;5.40;;
64351;SDS011;50680;52.626;-8.668;2022-07-23T03:30:33;9.20;;;5.35;;
64351;SDS011;50680;52.626;-8.668;2022-07-23T03:33:00;15.55;;;5.22;;
64351;SDS011;50680;52.626;-8.668;2022-07-23T03:35:27;10.48;;;4.93;;
64351;SDS011;50680;52.626;-8.668;2022-07-23T03:37:54;11.60;;;5.22;;
64351;SDS011;50680;52.626;-8.668;2022-07-23T03:40:21;10.85;;;5.00;;
64351;SDS011;50680;52.626;-8.668;2022-07-23T03:42:48;9.30;;;5.68;;
64351;SDS011;50680;52.626;-8.668;2022-07-23T03:45:15;6.70;;;4.50;;
64351;SDS011;50680;52.626;-8.668;2022-07-23T03:47:42;7.13;;;4.57;;
64351;SDS011;50680;52.626;-8.668;2022-07-23T03:50:10;7.07;;;4.47;;
64351;SDS011;50680;52.626;-8.668;2022-07-23T03:52:37;6.97;;;4.30;;
64351;SDS011;50680;52.626;-8.668;2022-07-23T03:55:05;10.73;;;4.05;;
64351;SDS011;50680;52.626;-8.668;2022-07-23T03:57:32;8.15;;;4.45;;
64351;SDS011;50680;52.626;-8.668;2022-07-23T03:59:59;8.90;;;4.70;;
64351;SDS011;50680;52.626;-8.668;2022-07-23T04:02:26;7.63;;;3.97;;
64351;SDS011;50680;52.626;-8.668;2022-07-23T04:04:53;5.40;;;4.03;;
64351;SDS011;50680;52.626;-8.668;2022-07-23T04:07:20;7.50;;;4.00;;
64351;SDS011;50680;52.626;-8.668;2022-07-23T04:09:48;10.13;;;3.80;;
64351;SDS011;50680;52.626;-8.668;2022-07-23T04:12:15;8.23;;;4.57;;
64351;SDS011;50680;52.626;-8.668;2022-07-23T04:14:42;6.53;;;3.67;;
64351;SDS011;50680;52.626;-8.668;2022-07-23T04:17:08;6.90;;;3.58;;
64351;SDS011;50680;52.626;-8.668;2022-07-23T04:19:35;7.57;;;3.70;;
64351;SDS011;50680;52.626;-8.668;2022-07-23T04:22:06;5.22;;;3.40;;
64351;SDS011;50680;52.626;-8.668;2022-07-23T04:24:34;7.78;;;3.55;;
64351;SDS011;50680;52.626;-8.668;2022-07-23T04:27:01;7.38;;;3.67;;
64351;SDS011;50680;52.626;-8.668;2022-07-23T04:29:30;4.68;;;3.40;;
64351;SDS011;50680;52.626;-8.668;2022-07-23T04:31:57;4.03;;;3.08;;
64351;SDS011;50680;52.626;-8.668;2022-07-23T04:34:24;6.65;;;2.83;;
64351;SDS011;50680;52.626;-8.668;2022-07-23T04:36:53;7.05;;;3.22;;
64351;SDS011;50680;52.626;-8.668;2022-07-23T04:39:20;4.47;;;2.55;;
64351;SDS011;50680;52.626;-8.668;2022-07-23T04:41:47;4.15;;;2.33;;
64351;SDS011;50680;52.626;-8.668;2022-07-23T04:44:14;4.68;;;2.60;;
64351;SDS011;50680;52.626;-8.668;2022-07-23T04:46:41;6.32;;;1.90;;
64351;SDS011;50680;52.626;-8.668;2022-07-23T04:49:08;2.83;;;1.98;;
64351;SDS011;50680;52.626;-8.668;2022-07-23T04:51:35;2.50;;;2.00;;
64351;SDS011;50680;52.626;-8.668;2022-07-23T04:54:02;2.80;;;1.63;;
64351;SDS011;50680;52.626;-8.668;2022-07-23T04:56:29;2.40;;;1.45;;
64351;SDS011;50680;52.626;-8.668;2022-07-23T04:58:56;1.92;;;1.60;;
64351;SDS011;50680;52.626;-8.668;2022-07-23T05:01:24;1.70;;;1.30;;
64351;SDS011;50680;52.626;-8.668;2022-07-23T05:03:51;4.72;;;1.73;;
64351;SDS011;50680;52.626;-8.668;2022-07-23T05:06:18;4.35;;;1.58;;
64351;SDS011;50680;52.626;-8.668;2022-07-23T05:08:45;3.30;;;1.98;;
64351;SDS011;50680;52.626;-8.668;2022-07-23T05:11:12;1.63;;;1.38;;
64351;SDS011;50680;52.626;-8.668;2022-07-23T05:13:39;2.83;;;1.40;;
64351;SDS011;50680;52.626;-8.668;2022-07-23T05:16:06;2.70;;;1.30;;
64351;SDS011;50680;52.626;-8.668;2022-07-23T05:18:33;4.10;;;1.40;;
64351;SDS011;50680;52.626;-8.668;2022-07-23T05:21:00;2.35;;;1.33;;
64351;SDS011;50680;52.626;-8.668;2022-07-23T05:23:27;4.25;;;1.23;;
64351;SDS011;50680;52.626;-8.668;2022-07-23T05:25:54;2.92;;;1.60;;
64351;SDS011;50680;52.626;-8.668;2022-07-23T05:28:21;3.00;;;1.23;;
64351;SDS011;50680;52.626;-8.668;2022-07-23T05:30:48;4.65;;;1.92;;
64351;SDS011;50680;52.626;-8.668;2022-07-23T05:33:17;1.88;;;1.15;;
64351;SDS011;50680;52.626;-8.668;2022-07-23T05:35:45;2.30;;;1.23;;
64351;SDS011;50680;52.626;-8.668;2022-07-23T05:38:13;2.28;;;1.33;;
64351;SDS011;50680;52.626;-8.668;2022-07-23T05:40:40;4.65;;;1.10;;
64351;SDS011;50680;52.626;-8.668;2022-07-23T05:43:07;2.80;;;1.02;;
64351;SDS011;50680;52.626;-8.668;2022-07-23T05:45:34;1.15;;;1.00;;
64351;SDS011;50680;52.626;-8.668;2022-07-23T05:48:01;1.92;;;1.15;;
64351;SDS011;50680;52.626;-8.668;2022-07-23T05:50:28;2.10;;;1.13;;
64351;SDS011;50680;52.626;-8.668;2022-07-23T05:52:54;1.73;;;1.00;;
64351;SDS011;50680;52.626;-8.668;2022-07-23T05:55:21;4.13;;;1.10;;
64351;SDS011;50680;52.626;-8.668;2022-07-23T05:57:48;2.10;;;1.13;;
64351;SDS011;50680;52.626;-8.668;2022-07-23T06:00:15;2.95;;;1.10;;
64351;SDS011;50680;52.626;-8.668;2022-07-23T06:02:42;3.08;;;1.17;;
64351;SDS011;50680;52.626;-8.668;2022-07-23T06:05:09;1.83;;;1.02;;
64351;SDS011;50680;52.626;-8.668;2022-07-23T06:07:36;3.05;;;1.30;;
64351;SDS011;50680;52.626;-8.668;2022-07-23T06:10:03;3.03;;;1.20;;
64351;SDS011;50680;52.626;-8.668;2022-07-23T06:12:31;1.83;;;1.08;;
64351;SDS011;50680;52.626;-8.668;2022-07-23T06:14:58;4.28;;;1.00;;
64351;SDS011;50680;52.626;-8.668;2022-07-23T06:17:25;2.53;;;1.00;;
64351;SDS011;50680;52.626;-8.668;2022-07-23T06:19:52;2.90;;;0.95;;
64351;SDS011;50680;52.626;-8.668;2022-07-23T06:22:19;2.20;;;0.82;;
64351;SDS011;50680;52.626;-8.668;2022-07-23T06:24:46;3.30;;;0.95;;
64351;SDS011;50680;52.626;-8.668;2022-07-23T06:27:14;2.63;;;0.90;;
64351;SDS011;50680;52.626;-8.668;2022-07-23T06:29:40;2.17;;;0.90;;
64351;SDS011;50680;52.626;-8.668;2022-07-23T06:32:07;1.95;;;0.70;;
64351;SDS011;50680;52.626;-8.668;2022-07-23T06:34:38;1.67;;;0.60;;
64351;SDS011;50680;52.626;-8.668;2022-07-23T06:37:10;2.25;;;0.80;;
64351;SDS011;50680;52.626;-8.668;2022-07-23T06:39:39;0.98;;;0.70;;
64351;SDS011;50680;52.626;-8.668;2022-07-23T06:42:06;0.95;;;0.68;;
64351;SDS011;50680;52.626;-8.668;2022-07-23T06:44:33;3.95;;;0.73;;
64351;SDS011;50680;52.626;-8.668;2022-07-23T06:47:00;2.83;;;0.45;;
64351;SDS011;50680;52.626;-8.668;2022-07-23T06:49:27;1.27;;;0.60;;
64351;SDS011;50680;52.626;-8.668;2022-07-23T06:51:54;1.08;;;0.43;;
64351;SDS011;50680;52.626;-8.668;2022-07-23T06:54:21;1.10;;;0.47;;
64351;SDS011;50680;52.626;-8.668;2022-07-23T06:56:47;0.60;;;0.40;;
64351;SDS011;50680;52.626;-8.668;2022-07-23T06:59:15;0.85;;;0.40;;
64351;SDS011;50680;52.626;-8.668;2022-07-23T07:01:42;2.40;;;0.50;;
64351;SDS011;50680;52.626;-8.668;2022-07-23T07:04:09;0.40;;;0.40;;
64351;SDS011;50680;52.626;-8.668;2022-07-23T07:06:36;1.20;;;0.40;;
64351;SDS011;50680;52.626;-8.668;2022-07-23T07:09:03;1.48;;;0.40;;
64351;SDS011;50680;52.626;-8.668;2022-07-23T07:11:31;1.58;;;0.40;;
64351;SDS011;50680;52.626;-8.668;2022-07-23T07:13:57;0.68;;;0.47;;
64351;SDS011;50680;52.626;-8.668;2022-07-23T07:16:24;2.10;;;0.32;;
64351;SDS011;50680;52.626;-8.668;2022-07-23T07:18:57;4.35;;;0.63;;
64351;SDS011;50680;52.626;-8.668;2022-07-23T07:21:25;2.08;;;0.40;;
64351;SDS011;50680;52.626;-8.668;2022-07-23T07:23:52;1.77;;;0.52;;
64351;SDS011;50680;52.626;-8.668;2022-07-23T07:26:19;2.15;;;0.40;;
64351;SDS011;50680;52.626;-8.668;2022-07-23T07:28:46;1.55;;;0.43;;
64351;SDS011;50680;52.626;-8.668;2022-07-23T07:31:12;2.30;;;0.73;;
64351;SDS011;50680;52.626;-8.668;2022-07-23T07:33:39;1.90;;;0.60;;
64351;SDS011;50680;52.626;-8.668;2022-07-23T07:36:06;0.85;;;0.50;;
64351;SDS011;50680;52.626;-8.668;2022-07-23T07:38:34;0.63;;;0.30;;
64351;SDS011;50680;52.626;-8.668;2022-07-23T07:41:00;1.23;;;0.50;;
64351;SDS011;50680;52.626;-8.668;2022-07-23T07:43:27;2.05;;;0.43;;
64351;SDS011;50680;52.626;-8.668;2022-07-23T07:45:54;1.05;;;0.40;;
64351;SDS011;50680;52.626;-8.668;2022-07-23T07:48:21;0.40;;;0.40;;
64351;SDS011;50680;52.626;-8.668;2022-07-23T07:50:48;0.47;;;0.30;;
64351;SDS011;50680;52.626;-8.668;2022-07-23T07:53:15;2.83;;;0.45;;
64351;SDS011;50680;52.626;-8.668;2022-07-23T07:55:42;3.35;;;0.50;;
64351;SDS011;50680;52.626;-8.668;2022-07-23T07:58:16;0.30;;;0.30;;
64351;SDS011;50680;52.626;-8.668;2022-07-23T08:00:44;0.95;;;0.38;;
64351;SDS011;50680;52.626;-8.668;2022-07-23T08:03:11;0.30;;;0.28;;
64351;SDS011;50680;52.626;-8.668;2022-07-23T08:05:39;0.45;;;0.30;;
64351;SDS011;50680;52.626;-8.668;2022-07-23T08:08:06;2.15;;;0.38;;
64351;SDS011;50680;52.626;-8.668;2022-07-23T08:10:33;0.57;;;0.13;;
64351;SDS011;50680;52.626;-8.668;2022-07-23T08:13:00;0.70;;;0.32;;
64351;SDS011;50680;52.626;-8.668;2022-07-23T08:15:28;0.25;;;0.15;;
64351;SDS011;50680;52.626;-8.668;2022-07-23T08:17:56;1.38;;;0.40;;
64351;SDS011;50680;52.626;-8.668;2022-07-23T08:20:23;0.50;;;0.20;;
64351;SDS011;50680;52.626;-8.668;2022-07-23T08:22:52;0.60;;;0.20;;
64351;SDS011;50680;52.626;-8.668;2022-07-23T08:25:24;1.38;;;0.30;;
64351;SDS011;50680;52.626;-8.668;2022-07-23T08:27:59;0.15;;;0.10;;
64351;SDS011;50680;52.626;-8.668;2022-07-23T08:30:28;0.65;;;0.22;;
64351;SDS011;50680;52.626;-8.668;2022-07-23T08:32:58;0.38;;;0.10;;
64351;SDS011;50680;52.626;-8.668;2022-07-23T08:35:33;0.70;;;0.20;;
64351;SDS011;50680;52.626;-8.668;2022-07-23T08:38:03;1.75;;;0.20;;
64351;SDS011;50680;52.626;-8.668;2022-07-23T08:40:33;0.40;;;0.20;;
64351;SDS011;50680;52.626;-8.668;2022-07-23T08:43:10;0.95;;;0.10;;
64351;SDS011;50680;52.626;-8.668;2022-07-23T08:45:40;0.85;;;0.38;;
64351;SDS011;50680;52.626;-8.668;2022-07-23T08:48:13;0.50;;;0.20;;
64351;SDS011;50680;52.626;-8.668;2022-07-23T08:50:44;0.32;;;0.30;;
64351;SDS011;50680;52.626;-8.668;2022-07-23T08:53:15;1.42;;;0.17;;
64351;SDS011;50680;52.626;-8.668;2022-07-23T08:55:44;0.50;;;0.28;;
64351;SDS011;50680;52.626;-8.668;2022-07-23T08:58:12;1.05;;;0.20;;
64351;SDS011;50680;52.626;-8.668;2022-07-23T09:00:40;0.22;;;0.20;;
64351;SDS011;50680;52.626;-8.668;2022-07-23T09:03:11;0.68;;;0.32;;
64351;SDS011;50680;52.626;-8.668;2022-07-23T09:05:42;0.95;;;0.20;;
64351;SDS011;50680;52.626;-8.668;2022-07-23T09:13:31;0.85;;;0.20;;
64351;SDS011;50680;52.626;-8.668;2022-07-23T09:16:10;0.40;;;0.30;;
64351;SDS011;50680;52.626;-8.668;2022-07-23T09:18:51;1.85;;;0.20;;
64351;SDS011;50680;52.626;-8.668;2022-07-23T09:24:01;0.73;;;0.22;;
64351;SDS011;50680;52.626;-8.668;2022-07-23T09:26:40;0.30;;;0.25;;
64351;SDS011;50680;52.626;-8.668;2022-07-23T09:29:20;1.08;;;0.30;;
64351;SDS011;50680;52.626;-8.668;2022-07-23T09:34:23;2.60;;;0.30;;
64351;SDS011;50680;52.626;-8.668;2022-07-23T09:39:24;0.28;;;0.20;;
64351;SDS011;50680;52.626;-8.668;2022-07-23T09:41:54;0.47;;;0.25;;
64351;SDS011;50680;52.626;-8.668;2022-07-23T09:44:21;0.40;;;0.40;;
64351;SDS011;50680;52.626;-8.668;2022-07-23T09:46:57;5.65;;;0.38;;
64351;SDS011;50680;52.626;-8.668;2022-07-23T09:49:26;0.45;;;0.22;;
64351;SDS011;50680;52.626;-8.668;2022-07-23T09:51:56;1.27;;;0.30;;
64351;SDS011;50680;52.626;-8.668;2022-07-23T09:54:42;0.20;;;0.20;;
64351;SDS011;50680;52.626;-8.668;2022-07-23T09:57:10;0.93;;;0.30;;
64351;SDS011;50680;52.626;-8.668;2022-07-23T09:59:42;0.73;;;0.30;;
64351;SDS011;50680;52.626;-8.668;2022-07-23T10:02:13;0.60;;;0.55;;
64351;SDS011;50680;52.626;-8.668;2022-07-23T10:04:41;2.83;;;0.32;;
64351;SDS011;50680;52.626;-8.668;2022-07-23T10:07:10;0.50;;;0.40;;
64351;SDS011;50680;52.626;-8.668;2022-07-23T10:09:38;2.35;;;0.50;;
64351;SDS011;50680;52.626;-8.668;2022-07-23T10:12:13;1.33;;;0.50;;
64351;SDS011;50680;52.626;-8.668;2022-07-23T10:14:40;2.95;;;0.40;;
64351;SDS011;50680;52.626;-8.668;2022-07-23T10:17:08;2.63;;;0.40;;
64351;SDS011;50680;52.626;-8.668;2022-07-23T10:19:36;1.45;;;0.30;;
64351;SDS011;50680;52.626;-8.668;2022-07-23T10:22:04;4.18;;;0.50;;
64351;SDS011;50680;52.626;-8.668;2022-07-23T10:30:41;1.02;;;0.40;;
64351;SDS011;50680;52.626;-8.668;2022-07-23T10:33:22;1.98;;;0.52;;
64351;SDS011;50680;52.626;-8.668;2022-07-23T10:36:09;2.30;;;0.40;;
64351;SDS011;50680;52.626;-8.668;2022-07-23T10:39:05;2.30;;;0.80;;
64351;SDS011;50680;52.626;-8.668;2022-07-23T10:44:37;0.60;;;0.50;;
64351;SDS011;50680;52.626;-8.668;2022-07-23T10:47:04;3.75;;;0.50;;
64351;SDS011;50680;52.626;-8.668;2022-07-23T10:49:35;2.70;;;0.60;;
64351;SDS011;50680;52.626;-8.668;2022-07-23T10:54:42;0.73;;;0.57;;
64351;SDS011;50680;52.626;-8.668;2022-07-23T10:57:15;1.02;;;0.50;;
64351;SDS011;50680;52.626;-8.668;2022-07-23T11:02:30;1.52;;;0.60;;
64351;SDS011;50680;52.626;-8.668;2022-07-23T11:04:59;0.65;;;0.50;;
64351;SDS011;50680;52.626;-8.668;2022-07-23T11:07:28;2.50;;;0.60;;
64351;SDS011;50680;52.626;-8.668;2022-07-23T11:09:55;1.05;;;0.50;;
64351;SDS011;50680;52.626;-8.668;2022-07-23T11:18:19;0.57;;;0.57;;
64351;SDS011;50680;52.626;-8.668;2022-07-23T11:20:21;0.60;;;0.50;;
64351;SDS011;50680;52.626;-8.668;2022-07-23T11:22:50;0.75;;;0.65;;
64351;SDS011;50680;52.626;-8.668;2022-07-23T11:27:50;4.75;;;0.90;;
64351;SDS011;50680;52.626;-8.668;2022-07-23T11:32:55;3.45;;;0.77;;
64351;SDS011;50680;52.626;-8.668;2022-07-23T11:35:49;1.75;;;0.73;;
64351;SDS011;50680;52.626;-8.668;2022-07-23T11:38:26;1.17;;;0.70;;
64351;SDS011;50680;52.626;-8.668;2022-07-23T11:40:55;0.73;;;0.70;;
64351;SDS011;50680;52.626;-8.668;2022-07-23T11:43:25;0.98;;;0.75;;
64351;SDS011;50680;52.626;-8.668;2022-07-23T11:45:54;0.80;;;0.80;;
64351;SDS011;50680;52.626;-8.668;2022-07-23T11:48:26;0.60;;;0.60;;
64351;SDS011;50680;52.626;-8.668;2022-07-23T11:50:55;0.50;;;0.50;;
64351;SDS011;50680;52.626;-8.668;2022-07-23T11:53:31;1.40;;;0.80;;
64351;SDS011;50680;52.626;-8.668;2022-07-23T11:56:06;0.70;;;0.70;;
64351;SDS011;50680;52.626;-8.668;2022-07-23T11:58:35;2.65;;;0.60;;
64351;SDS011;50680;52.626;-8.668;2022-07-23T12:01:04;0.75;;;0.70;;
64351;SDS011;50680;52.626;-8.668;2022-07-23T12:03:32;1.05;;;0.70;;
64351;SDS011;50680;52.626;-8.668;2022-07-23T12:06:03;1.05;;;0.55;;
64351;SDS011;50680;52.626;-8.668;2022-07-23T12:08:30;0.65;;;0.65;;
64351;SDS011;50680;52.626;-8.668;2022-07-23T12:10:57;2.05;;;0.70;;
64351;SDS011;50680;52.626;-8.668;2022-07-23T12:13:24;1.23;;;0.70;;
64351;SDS011;50680;52.626;-8.668;2022-07-23T12:15:52;0.60;;;0.60;;
64351;SDS011;50680;52.626;-8.668;2022-07-23T12:18:21;0.52;;;0.52;;
64351;SDS011;50680;52.626;-8.668;2022-07-23T12:20:53;0.60;;;0.40;;
64351;SDS011;50680;52.626;-8.668;2022-07-23T12:23:23;0.50;;;0.50;;
64351;SDS011;50680;52.626;-8.668;2022-07-23T12:25:51;0.95;;;0.50;;
64351;SDS011;50680;52.626;-8.668;2022-07-23T12:28:27;0.50;;;0.50;;
64351;SDS011;50680;52.626;-8.668;2022-07-23T12:30:56;0.40;;;0.40;;
64351;SDS011;50680;52.626;-8.668;2022-07-23T12:33:34;0.40;;;0.40;;
64351;SDS011;50680;52.626;-8.668;2022-07-23T12:36:03;0.82;;;0.50;;
64351;SDS011;50680;52.626;-8.668;2022-07-23T12:38:48;1.00;;;0.40;;
64351;SDS011;50680;52.626;-8.668;2022-07-23T12:41:15;0.38;;;0.38;;
64351;SDS011;50680;52.626;-8.668;2022-07-23T12:43:44;0.30;;;0.30;;
64351;SDS011;50680;52.626;-8.668;2022-07-23T12:46:15;0.55;;;0.40;;
64351;SDS011;50680;52.626;-8.668;2022-07-23T12:53:55;0.40;;;0.40;;
64351;SDS011;50680;52.626;-8.668;2022-07-23T12:56:29;0.50;;;0.50;;
64351;SDS011;50680;52.626;-8.668;2022-07-23T13:01:35;0.38;;;0.38;;
64351;SDS011;50680;52.626;-8.668;2022-07-23T13:06:49;0.93;;;0.40;;
64351;SDS011;50680;52.626;-8.668;2022-07-23T13:09:19;2.10;;;0.40;;
64351;SDS011;50680;52.626;-8.668;2022-07-23T13:11:51;1.75;;;0.40;;
64351;SDS011;50680;52.626;-8.668;2022-07-23T13:14:22;0.40;;;0.40;;
64351;SDS011;50680;52.626;-8.668;2022-07-23T13:16:52;0.93;;;0.40;;
64351;SDS011;50680;52.626;-8.668;2022-07-23T13:19:22;0.30;;;0.30;;
64351;SDS011;50680;52.626;-8.668;2022-07-23T13:22:09;0.22;;;0.22;;
64351;SDS011;50680;52.626;-8.668;2022-07-23T13:24:37;1.60;;;0.40;;
64351;SDS011;50680;52.626;-8.668;2022-07-23T13:27:05;0.30;;;0.30;;
64351;SDS011;50680;52.626;-8.668;2022-07-23T13:29:38;0.30;;;0.30;;
64351;SDS011;50680;52.626;-8.668;2022-07-23T13:32:05;0.95;;;0.40;;
64351;SDS011;50680;52.626;-8.668;2022-07-23T13:34:36;0.30;;;0.30;;
64351;SDS011;50680;52.626;-8.668;2022-07-23T13:37:06;0.30;;;0.30;;
64351;SDS011;50680;52.626;-8.668;2022-07-23T13:39:33;0.85;;;0.30;;
64351;SDS011;50680;52.626;-8.668;2022-07-23T13:42:04;0.68;;;0.30;;
64351;SDS011;50680;52.626;-8.668;2022-07-23T13:44:33;0.88;;;0.20;;
64351;SDS011;50680;52.626;-8.668;2022-07-23T13:47:01;0.17;;;0.15;;
64351;SDS011;50680;52.626;-8.668;2022-07-23T13:49:30;0.35;;;0.20;;
64351;SDS011;50680;52.626;-8.668;2022-07-23T13:51:57;1.23;;;0.10;;
64351;SDS011;50680;52.626;-8.668;2022-07-23T13:54:24;1.45;;;0.20;;
64351;SDS011;50680;52.626;-8.668;2022-07-23T13:56:54;0.22;;;0.20;;
64351;SDS011;50680;52.626;-8.668;2022-07-23T13:59:22;0.20;;;0.20;;
64351;SDS011;50680;52.626;-8.668;2022-07-23T14:01:52;0.20;;;0.20;;
64351;SDS011;50680;52.626;-8.668;2022-07-23T14:04:40;0.32;;;0.30;;
64351;SDS011;50680;52.626;-8.668;2022-07-23T14:07:07;0.63;;;0.20;;
64351;SDS011;50680;52.626;-8.668;2022-07-23T14:09:35;0.20;;;0.20;;
64351;SDS011;50680;52.626;-8.668;2022-07-23T14:12:03;0.20;;;0.20;;
64351;SDS011;50680;52.626;-8.668;2022-07-23T14:14:32;2.78;;;0.40;;
64351;SDS011;50680;52.626;-8.668;2022-07-23T14:17:02;0.98;;;0.25;;
64351;SDS011;50680;52.626;-8.668;2022-07-23T14:19:30;0.40;;;0.40;;
64351;SDS011;50680;52.626;-8.668;2022-07-23T14:21:58;0.40;;;0.30;;
64351;SDS011;50680;52.626;-8.668;2022-07-23T14:24:26;0.68;;;0.30;;
64351;SDS011;50680;52.626;-8.668;2022-07-23T14:26:59;0.65;;;0.30;;
64351;SDS011;50680;52.626;-8.668;2022-07-23T14:29:28;1.27;;;0.35;;
64351;SDS011;50680;52.626;-8.668;2022-07-23T14:31:55;1.50;;;0.40;;
64351;SDS011;50680;52.626;-8.668;2022-07-23T14:34:23;1.90;;;0.40;;
64351;SDS011;50680;52.626;-8.668;2022-07-23T14:36:53;1.03;;;0.60;;
64351;SDS011;50680;52.626;-8.668;2022-07-23T14:39:20;0.65;;;0.60;;
64351;SDS011;50680;52.626;-8.668;2022-07-23T14:41:47;1.20;;;0.60;;
64351;SDS011;50680;52.626;-8.668;2022-07-23T14:44:14;0.75;;;0.52;;
64351;SDS011;50680;52.626;-8.668;2022-07-23T14:46:41;1.00;;;0.73;;
64351;SDS011;50680;52.626;-8.668;2022-07-23T14:49:09;2.15;;;0.70;;
64351;SDS011;50680;52.626;-8.668;2022-07-23T14:51:37;2.53;;;0.68;;
64351;SDS011;50680;52.626;-8.668;2022-07-23T14:54:04;1.20;;;0.60;;
64351;SDS011;50680;52.626;-8.668;2022-07-23T14:56:32;0.60;;;0.60;;
64351;SDS011;50680;52.626;-8.668;2022-07-23T14:59:00;0.57;;;0.52;;
64351;SDS011;50680;52.626;-8.668;2022-07-23T15:01:30;0.82;;;0.60;;
64351;SDS011;50680;52.626;-8.668;2022-07-23T15:04:00;2.03;;;0.55;;
64351;SDS011;50680;52.626;-8.668;2022-07-23T15:06:47;1.52;;;0.70;;
64351;SDS011;50680;52.626;-8.668;2022-07-23T15:09:14;1.10;;;0.70;;
64351;SDS011;50680;52.626;-8.668;2022-07-23T15:11:42;4.10;;;0.50;;
64351;SDS011;50680;52.626;-8.668;2022-07-23T15:14:09;0.93;;;0.60;;
64351;SDS011;50680;52.626;-8.668;2022-07-23T15:16:42;1.88;;;0.60;;
64351;SDS011;50680;52.626;-8.668;2022-07-23T15:19:10;0.65;;;0.50;;
64351;SDS011;50680;52.626;-8.668;2022-07-23T15:21:38;0.60;;;0.50;;
64351;SDS011;50680;52.626;-8.668;2022-07-23T15:24:05;0.52;;;0.40;;
64351;SDS011;50680;52.626;-8.668;2022-07-23T15:26:32;0.30;;;0.30;;
64351;SDS011;50680;52.626;-8.668;2022-07-23T15:29:01;1.23;;;0.40;;
64351;SDS011;50680;52.626;-8.668;2022-07-23T15:31:30;0.30;;;0.30;;